Blythe Airport Blythe US
ICAO: KBLH
IATA: BLH
Category: Medium
Scheduled Services: No

Elevation: 399 ft
TransAlt. 18000 ft.

Airport Communications:
ASOS:120.175
LOS ANGELES CNTR:128.15
RIVERSIDE RDO:122.4
CTAF/UNICOM:122.8

KBLH Zoom In..

Runways:

(A) RW 08 length 6543 ft width 150 ft
---- / hdg 77

(B) RW 17 length 5800 ft width 100 ft
---- / hdg 167

(C) RW 26 length 6543 ft width 150 ft
---- / hdg 257

(D) RW 35 length 5800 ft width 100 ft
---- / hdg 347

Location; KBLH
Day. 06 / Time. 05.52 Zulu
* Altimeter: 29.70
* Temperature: 33° c. 91.4°f.
* Wind from: 180° Speed 12 kn with Gusts up to 22 kn.
Dewpoint: 04° c.
Visibility: 10 Statute Miles.
Clouds: Clear (automated report).

KBLH 060552Z AUTO 18012G22KT 10SM CLR 33/04 A2970 RMK AO2 SLP050 T03280044 10428 20328 50007

Going to: --> -->


Wind From 180°
Speed 12 kn.

 
 
jpsmedia worldairports.se 2020   terms of use